createdAt,value
2017-05-04T00:00:55.740Z,28.78
2017-05-04T00:03:23.191Z,30.97
2017-05-04T00:05:50.633Z,28.82
2017-05-04T00:08:18.112Z,30.08
2017-05-04T00:10:45.563Z,31.60
2017-05-04T00:13:13.019Z,29.67
2017-05-04T00:15:40.484Z,26.02
2017-05-04T00:18:07.918Z,32.37
2017-05-04T00:20:35.363Z,30.07
2017-05-04T00:23:02.826Z,28.13
2017-05-04T00:25:30.267Z,26.73
2017-05-04T00:27:57.749Z,28.05
2017-05-04T00:30:25.236Z,31.18
2017-05-04T00:32:52.691Z,26.93
2017-05-04T00:35:20.282Z,28.18
2017-05-04T00:37:47.742Z,26.58
2017-05-04T00:40:15.185Z,27.32
2017-05-04T00:42:42.635Z,27.87
2017-05-04T00:45:10.110Z,30.12
2017-05-04T00:47:37.559Z,27.98
2017-05-04T00:50:04.998Z,26.25
2017-05-04T00:52:32.462Z,27.12
2017-05-04T00:54:59.907Z,29.37
2017-05-04T00:57:27.346Z,29.53
2017-05-04T00:59:54.808Z,31.72
2017-05-04T01:02:22.277Z,30.33
2017-05-04T01:04:49.705Z,33.03
2017-05-04T01:07:17.171Z,32.10
2017-05-04T01:09:44.611Z,31.33
2017-05-04T01:12:12.053Z,29.97
2017-05-04T01:14:39.517Z,29.85
2017-05-04T01:17:06.954Z,29.45
2017-05-04T01:19:34.407Z,32.13
2017-05-04T01:22:01.856Z,36.77
2017-05-04T01:24:29.306Z,34.05
2017-05-04T01:26:56.742Z,29.67
2017-05-04T01:29:24.222Z,34.42
2017-05-04T01:31:51.734Z,31.48
2017-05-04T01:34:19.182Z,35.48
2017-05-04T01:36:46.630Z,36.80
2017-05-04T01:39:14.077Z,33.48
2017-05-04T01:41:41.520Z,35.68
2017-05-04T01:44:08.994Z,36.53
2017-05-04T01:46:36.443Z,35.53
2017-05-04T01:49:03.895Z,34.50
2017-05-04T01:51:31.369Z,36.05
2017-05-04T01:53:58.807Z,35.05
2017-05-04T01:56:26.253Z,33.72
2017-05-04T01:58:53.733Z,34.20
2017-05-04T02:01:21.198Z,35.57
2017-05-04T02:03:48.630Z,33.45
2017-05-04T02:06:16.085Z,36.22
2017-05-04T02:08:43.534Z,42.60
2017-05-04T02:11:10.985Z,39.57
2017-05-04T02:13:38.483Z,44.48
2017-05-04T02:16:05.915Z,39.03
2017-05-04T02:18:33.361Z,38.12
2017-05-04T02:21:00.817Z,40.80
2017-05-04T02:23:28.272Z,40.37
2017-05-04T02:25:55.738Z,41.70
2017-05-04T02:28:23.210Z,37.87
2017-05-04T02:30:50.670Z,38.45
2017-05-04T02:33:18.117Z,38.87
2017-05-04T02:35:45.581Z,40.23
2017-05-04T02:38:13.017Z,36.12
2017-05-04T02:40:40.459Z,39.07
2017-05-04T02:43:07.915Z,39.57
2017-05-04T02:45:35.354Z,39.08
2017-05-04T02:48:02.786Z,40.05
2017-05-04T02:50:30.234Z,38.67
2017-05-04T02:52:57.685Z,45.05
2017-05-04T02:55:25.124Z,38.48
2017-05-04T02:57:52.602Z,39.37
2017-05-04T03:00:20.045Z,39.42
2017-05-04T03:02:47.478Z,38.18
2017-05-04T03:05:14.952Z,42.53
2017-05-04T03:07:42.391Z,43.12
2017-05-04T03:10:10.094Z,46.07
2017-05-04T03:12:37.558Z,41.35
2017-05-04T03:15:05.007Z,44.32
2017-05-04T03:17:32.466Z,41.97
2017-05-04T03:19:59.929Z,40.82
2017-05-04T03:22:27.369Z,41.43
2017-05-04T03:24:54.815Z,44.32
2017-05-04T03:27:22.346Z,40.00
2017-05-04T03:29:49.782Z,41.65
2017-05-04T03:32:17.271Z,37.22
2017-05-04T03:34:44.743Z,41.42
2017-05-04T03:37:12.190Z,41.07
2017-05-04T03:39:39.640Z,40.05
2017-05-04T03:42:07.117Z,38.27
2017-05-04T03:44:34.586Z,36.82
2017-05-04T03:47:02.045Z,43.00
2017-05-04T03:49:29.527Z,39.75
2017-05-04T03:51:57.018Z,39.43
2017-05-04T03:54:24.461Z,38.95
2017-05-04T03:56:51.926Z,39.37
2017-05-04T03:59:19.364Z,40.58
2017-05-04T04:01:46.801Z,38.10
2017-05-04T04:04:14.266Z,43.37
2017-05-04T04:06:41.693Z,46.07
2017-05-04T04:09:09.137Z,40.85
2017-05-04T04:11:36.586Z,42.48
2017-05-04T04:14:04.018Z,39.68
2017-05-04T04:16:31.460Z,39.75
2017-05-04T04:18:58.930Z,38.82
2017-05-04T04:21:26.378Z,39.00
2017-05-04T04:23:53.817Z,47.15
2017-05-04T04:26:21.284Z,47.45
2017-05-04T04:28:48.719Z,42.23
2017-05-04T04:31:16.153Z,45.38
2017-05-04T04:33:43.607Z,47.80
2017-05-04T04:36:11.042Z,45.98
2017-05-04T04:38:38.481Z,43.32
2017-05-04T04:41:05.934Z,43.72
2017-05-04T04:43:33.363Z,42.55
2017-05-04T04:46:00.808Z,42.93
2017-05-04T04:48:28.274Z,44.20
2017-05-04T04:50:55.710Z,45.78
2017-05-04T04:53:23.139Z,47.97
2017-05-04T04:55:50.609Z,45.60
2017-05-04T04:58:18.041Z,47.30
2017-05-04T05:00:45.476Z,41.85
2017-05-04T05:03:12.947Z,44.25
2017-05-04T05:05:40.386Z,46.78
2017-05-04T05:08:07.830Z,45.20
2017-05-04T05:10:35.292Z,47.33
2017-05-04T05:13:02.727Z,41.35
2017-05-04T05:15:30.158Z,40.33
2017-05-04T05:17:57.616Z,42.30
2017-05-04T05:20:25.058Z,45.08
2017-05-04T05:22:52.506Z,45.25
2017-05-04T05:25:19.950Z,45.17
2017-05-04T05:27:47.397Z,47.97
2017-05-04T05:30:14.840Z,44.82
2017-05-04T05:32:42.305Z,44.33
2017-05-04T05:35:09.752Z,51.55
2017-05-04T05:37:37.192Z,52.98
2017-05-04T05:40:04.662Z,45.22
2017-05-04T05:42:32.092Z,47.52
2017-05-04T05:44:59.529Z,41.43
2017-05-04T05:47:26.975Z,47.50
2017-05-04T05:49:54.413Z,49.33
2017-05-04T05:52:21.861Z,50.92
2017-05-04T05:54:49.322Z,45.83
2017-05-04T05:57:16.759Z,46.28
2017-05-04T05:59:44.197Z,45.58
2017-05-04T06:02:11.664Z,48.67
2017-05-04T06:04:39.105Z,48.93
2017-05-04T06:07:06.538Z,48.03
2017-05-04T06:09:34.002Z,44.18
2017-05-04T06:12:01.430Z,43.47
2017-05-04T06:14:28.874Z,50.27
2017-05-04T06:16:56.325Z,49.15
2017-05-04T06:19:23.762Z,48.35
2017-05-04T06:21:51.197Z,48.47
2017-05-04T06:24:18.663Z,51.68
2017-05-04T06:26:46.136Z,47.98
2017-05-04T06:29:13.575Z,49.15
2017-05-04T06:31:41.026Z,42.35
2017-05-04T06:34:08.462Z,41.45
2017-05-04T06:36:35.903Z,47.97
2017-05-04T06:39:03.382Z,41.53
2017-05-04T06:41:30.826Z,37.45
2017-05-04T06:43:58.286Z,43.33
2017-05-04T06:46:25.755Z,46.47
2017-05-04T06:48:53.230Z,42.17
2017-05-04T06:51:20.710Z,52.80
2017-05-04T06:53:48.207Z,43.55
2017-05-04T06:56:15.682Z,42.52
2017-05-04T06:58:43.167Z,49.18
2017-05-04T07:01:10.613Z,48.12
2017-05-04T07:03:38.075Z,55.13
2017-05-04T07:06:05.542Z,54.67
2017-05-04T07:08:33.005Z,53.73
2017-05-04T07:11:00.446Z,54.28
2017-05-04T07:13:28.713Z,57.40
2017-05-04T07:15:56.154Z,52.40
2017-05-04T07:18:23.591Z,56.93
2017-05-04T07:20:51.045Z,58.57
2017-05-04T07:23:18.486Z,62.62
2017-05-04T07:25:45.926Z,65.95
2017-05-04T07:28:13.390Z,56.40
2017-05-04T07:30:40.837Z,53.78
2017-05-04T07:33:08.275Z,65.48
2017-05-04T07:35:35.742Z,59.32
2017-05-04T07:38:03.199Z,60.80
2017-05-04T07:40:30.660Z,66.57
2017-05-04T07:42:58.142Z,61.45
2017-05-04T07:45:25.577Z,63.08
2017-05-04T07:47:53.036Z,57.65
2017-05-04T07:50:20.499Z,60.32
2017-05-04T07:52:47.965Z,54.38
2017-05-04T07:55:15.405Z,57.57
2017-05-04T07:57:42.864Z,55.87
2017-05-04T08:00:10.335Z,69.57
2017-05-04T08:02:37.783Z,65.90
2017-05-04T08:05:05.259Z,57.93
2017-05-04T08:07:32.706Z,62.35
2017-05-04T08:10:00.146Z,48.77
2017-05-04T08:12:28.601Z,56.10
2017-05-04T08:14:56.257Z,56.68
2017-05-04T08:17:23.700Z,57.65
2017-05-04T08:19:51.166Z,48.70
2017-05-04T08:22:18.609Z,46.73
2017-05-04T08:24:46.047Z,46.45
2017-05-04T08:27:13.523Z,63.47
2017-05-04T08:29:40.962Z,48.88
2017-05-04T08:32:08.393Z,50.35
2017-05-04T08:34:35.856Z,47.67
2017-05-04T08:37:03.297Z,51.92
2017-05-04T08:39:30.737Z,44.75
2017-05-04T08:41:58.193Z,47.68
2017-05-04T08:44:25.629Z,47.05
2017-05-04T08:46:53.057Z,47.65
2017-05-04T08:49:20.528Z,45.12
2017-05-04T08:51:47.962Z,53.38
2017-05-04T08:54:15.397Z,54.92
2017-05-04T08:56:42.858Z,45.52
2017-05-04T08:59:10.293Z,45.98
2017-05-04T09:01:37.734Z,42.65
2017-05-04T09:04:05.189Z,49.97
2017-05-04T09:06:32.624Z,44.83
2017-05-04T09:09:00.062Z,49.82
2017-05-04T09:11:27.532Z,62.08
2017-05-04T09:13:54.969Z,52.30
2017-05-04T09:16:22.400Z,48.28
2017-05-04T09:18:49.861Z,48.30
2017-05-04T09:21:17.294Z,48.58
2017-05-04T09:23:44.746Z,48.53
2017-05-04T09:26:12.202Z,58.32
2017-05-04T09:28:39.637Z,44.22
2017-05-04T09:31:07.079Z,52.25
2017-05-04T09:33:34.550Z,51.12
2017-05-04T09:36:01.986Z,44.48
2017-05-04T09:38:29.425Z,53.33
2017-05-04T09:40:56.871Z,48.60
2017-05-04T09:43:24.301Z,48.75
2017-05-04T09:45:51.738Z,45.50
2017-05-04T09:48:19.201Z,41.92
2017-05-04T09:50:46.631Z,42.42
2017-05-04T09:53:14.066Z,43.38
2017-05-04T09:55:41.526Z,46.73
2017-05-04T09:58:08.974Z,47.67
2017-05-04T10:00:36.405Z,47.57
2017-05-04T10:03:03.866Z,46.67
2017-05-04T10:05:31.310Z,48.23
2017-05-04T10:07:58.746Z,44.08
2017-05-04T10:10:26.210Z,48.32
2017-05-04T10:12:53.642Z,46.13
2017-05-04T10:15:21.080Z,44.17
2017-05-04T10:17:48.525Z,45.57
2017-05-04T10:20:15.958Z,45.63
2017-05-04T10:22:43.393Z,48.83
2017-05-04T10:25:10.857Z,42.98
2017-05-04T10:27:38.305Z,42.78
2017-05-04T10:30:06.495Z,45.43
2017-05-04T10:32:33.966Z,40.48
2017-05-04T10:35:01.406Z,44.80
2017-05-04T10:37:28.838Z,39.97
2017-05-04T10:39:56.287Z,39.42
2017-05-04T10:42:23.725Z,42.90
2017-05-04T10:44:51.162Z,43.90
2017-05-04T10:47:18.630Z,38.95
2017-05-04T10:49:46.073Z,43.10
2017-05-04T10:52:13.532Z,43.08
2017-05-04T10:54:40.978Z,43.08
2017-05-04T10:57:08.466Z,41.42
2017-05-04T10:59:35.922Z,40.77
2017-05-04T11:02:03.406Z,47.72
2017-05-04T11:04:30.846Z,41.72
2017-05-04T11:06:58.303Z,46.27
2017-05-04T11:09:25.759Z,43.37
2017-05-04T11:11:53.218Z,41.80
2017-05-04T11:14:20.658Z,43.98
2017-05-04T11:16:48.158Z,44.95
2017-05-04T11:19:15.606Z,45.00
2017-05-04T11:21:43.062Z,47.23
2017-05-04T11:24:10.606Z,43.95
2017-05-04T11:26:38.062Z,46.23
2017-05-04T11:29:05.538Z,46.83
2017-05-04T11:31:33.023Z,46.47
2017-05-04T11:34:00.466Z,50.37
2017-05-04T11:36:27.915Z,50.98
2017-05-04T11:38:55.382Z,49.03
2017-05-04T11:41:22.828Z,45.88
2017-05-04T11:43:50.289Z,50.38
2017-05-04T11:46:17.767Z,42.85
2017-05-04T11:48:45.238Z,43.82
2017-05-04T11:51:12.696Z,49.93
2017-05-04T11:53:41.095Z,47.82
2017-05-04T11:56:09.473Z,43.25
2017-05-04T11:58:36.945Z,44.92
2017-05-04T12:01:04.405Z,39.95
2017-05-04T12:03:31.858Z,45.37
2017-05-04T12:05:59.303Z,23.30
2017-05-04T12:08:26.763Z,20.20
2017-05-04T12:11:07.294Z,19.22
2017-05-04T12:13:34.774Z,35.60
2017-05-04T12:16:02.234Z,22.47
2017-05-04T12:18:29.721Z,21.83
2017-05-04T12:20:57.262Z,30.33
2017-05-04T12:23:24.759Z,21.18
2017-05-04T12:25:52.271Z,25.83
2017-05-04T12:28:19.842Z,26.83
2017-05-04T12:30:47.366Z,37.60
2017-05-04T12:33:14.846Z,33.57
2017-05-04T12:35:42.329Z,29.92
2017-05-04T12:38:09.842Z,25.52
2017-05-04T12:40:37.345Z,25.13
2017-05-04T12:43:04.869Z,24.58
2017-05-04T12:45:32.413Z,25.48
2017-05-04T12:47:59.935Z,28.02
2017-05-04T12:50:27.493Z,30.83
2017-05-04T12:52:54.980Z,30.72
2017-05-04T12:55:22.494Z,25.05
2017-05-04T12:57:50.032Z,28.02
2017-05-04T13:00:17.557Z,24.77
2017-05-04T13:02:45.130Z,23.02
2017-05-04T13:05:12.638Z,24.77
2017-05-04T13:07:40.131Z,23.58
2017-05-04T13:10:07.624Z,31.30
2017-05-04T13:12:35.144Z,22.25
2017-05-04T13:15:02.609Z,24.07
2017-05-04T13:17:30.106Z,23.78
2017-05-04T13:19:58.562Z,26.90
2017-05-04T13:22:26.018Z,23.20
2017-05-04T13:24:53.474Z,25.83
2017-05-04T13:27:21.006Z,27.33
2017-05-04T13:29:48.523Z,32.40
2017-05-04T13:32:16.075Z,25.82
2017-05-04T13:34:43.537Z,24.97
2017-05-04T13:37:10.990Z,17.45
2017-05-04T13:39:38.422Z,9.17
2017-05-04T13:42:11.769Z,8.88
2017-05-04T13:44:39.234Z,7.87
2017-05-04T13:47:06.814Z,5.63
2017-05-04T13:49:34.348Z,3.92
2017-05-04T13:52:01.890Z,6.67
2017-05-04T13:54:29.363Z,6.52
2017-05-04T13:56:56.854Z,4.85
2017-05-04T13:59:28.311Z,7.98
2017-05-04T14:01:55.858Z,13.78
2017-05-04T14:04:23.345Z,27.93
2017-05-04T14:09:48.146Z,25.63
2017-05-04T14:12:15.677Z,29.63
2017-05-04T14:14:43.117Z,27.82
2017-05-04T14:17:10.630Z,33.23
2017-05-04T14:19:38.186Z,26.48
2017-05-04T14:22:05.679Z,26.40
2017-05-04T14:24:33.186Z,26.12
2017-05-04T14:27:00.664Z,27.68
2017-05-04T14:29:28.151Z,30.25
2017-05-04T14:31:55.725Z,31.77
2017-05-04T14:34:23.230Z,29.45
2017-05-04T14:36:50.682Z,29.73
2017-05-04T14:39:18.172Z,34.45
2017-05-04T14:41:45.699Z,33.97
2017-05-04T14:44:13.147Z,35.68
2017-05-04T14:46:40.622Z,37.37
2017-05-04T14:49:08.070Z,35.13
2017-05-04T14:51:35.550Z,33.52
2017-05-04T14:54:03.025Z,31.38
2017-05-04T14:56:30.476Z,30.50
2017-05-04T14:58:57.922Z,34.57
2017-05-04T15:01:25.393Z,26.28
2017-05-04T15:03:52.850Z,25.02
2017-05-04T15:06:20.305Z,25.18
2017-05-04T15:08:47.790Z,18.00
2017-05-04T15:11:26.790Z,14.78
2017-05-04T15:13:54.266Z,15.78
2017-05-04T15:16:21.734Z,11.38
2017-05-04T15:18:49.185Z,12.15
2017-05-04T15:21:16.626Z,12.20
2017-05-04T15:23:49.630Z,10.48
2017-05-04T15:26:17.070Z,11.07
2017-05-04T15:28:44.520Z,13.10
2017-05-04T15:31:11.974Z,12.50
2017-05-04T15:33:39.425Z,14.28
2017-05-04T15:36:23.910Z,13.92
2017-05-04T15:38:51.479Z,20.37
2017-05-04T15:41:18.926Z,25.35
2017-05-04T15:43:46.379Z,20.95
2017-05-04T15:46:13.831Z,27.08
2017-05-04T15:48:41.322Z,25.33
2017-05-04T15:51:08.983Z,26.53
2017-05-04T15:53:36.418Z,29.35
2017-05-04T15:56:17.626Z,32.15
2017-05-04T15:58:45.071Z,34.28
2017-05-04T16:01:14.466Z,35.78
2017-05-04T16:03:41.931Z,36.13
2017-05-04T16:06:09.390Z,32.58
2017-05-04T16:08:36.826Z,37.15
2017-05-04T16:11:04.271Z,34.13
2017-05-04T16:13:31.734Z,37.98
2017-05-04T16:15:59.184Z,46.20
2017-05-04T16:18:26.852Z,37.07
2017-05-04T16:20:54.294Z,41.23
2017-05-04T16:23:21.753Z,36.28
2017-05-04T16:25:49.249Z,40.00
2017-05-04T16:28:16.696Z,38.60
2017-05-04T16:30:45.747Z,33.97
2017-05-04T16:33:13.193Z,36.90
2017-05-04T16:35:41.059Z,33.88
2017-05-04T16:38:08.536Z,33.17
2017-05-04T16:40:35.986Z,34.67
2017-05-04T16:43:03.450Z,38.80
2017-05-04T16:45:31.347Z,33.82
2017-05-04T16:47:58.804Z,34.02
2017-05-04T16:50:28.263Z,37.77
2017-05-04T16:52:55.723Z,34.75
2017-05-04T16:55:23.174Z,34.42
2017-05-04T16:57:50.619Z,37.48
2017-05-04T17:00:18.217Z,39.68
2017-05-04T17:02:45.752Z,37.72
2017-05-04T17:05:13.200Z,34.03
2017-05-04T17:07:40.654Z,38.63
2017-05-04T17:10:09.065Z,33.25
2017-05-04T17:12:36.595Z,30.27
2017-05-04T17:15:04.066Z,33.33
2017-05-04T17:17:31.514Z,38.90
2017-05-04T17:19:58.966Z,36.33
2017-05-04T17:22:26.435Z,35.75
2017-05-04T17:24:54.902Z,40.00
2017-05-04T17:27:22.421Z,35.33
2017-05-04T17:29:49.894Z,30.88
2017-05-04T17:32:17.360Z,32.60
2017-05-04T17:34:44.817Z,31.82
2017-05-04T17:37:12.278Z,28.95
2017-05-04T17:39:39.738Z,24.67
2017-05-04T17:42:07.200Z,25.75
2017-05-04T17:44:36.398Z,25.75
2017-05-04T17:47:03.857Z,19.78
2017-05-04T17:49:32.220Z,20.38
2017-05-04T17:51:59.679Z,20.00
2017-05-04T17:54:28.054Z,18.83
2017-05-04T17:56:55.511Z,19.87
2017-05-04T17:59:22.965Z,18.07
2017-05-04T18:01:51.365Z,21.43
2017-05-04T18:04:18.831Z,17.38
2017-05-04T18:06:46.265Z,17.47
2017-05-04T18:09:14.659Z,15.72
2017-05-04T18:11:42.100Z,17.70
2017-05-04T18:14:09.551Z,15.97
2017-05-04T18:16:36.997Z,16.78
2017-05-04T18:19:04.435Z,15.22
2017-05-04T18:21:31.918Z,15.43
2017-05-04T18:23:59.353Z,15.65
2017-05-04T18:26:26.783Z,14.95
2017-05-04T18:28:54.241Z,17.10
2017-05-04T18:31:21.681Z,18.82
2017-05-04T18:33:49.122Z,14.90
2017-05-04T18:36:17.295Z,18.73
2017-05-04T18:38:44.742Z,15.82
2017-05-04T18:41:12.181Z,19.65
2017-05-04T18:43:39.641Z,15.73
2017-05-04T18:46:07.074Z,16.43
2017-05-04T18:48:34.506Z,22.23
2017-05-04T18:51:01.963Z,16.85
2017-05-04T18:53:29.398Z,18.47
2017-05-04T18:55:56.837Z,16.10
2017-05-04T18:58:24.293Z,17.68
2017-05-04T19:00:51.766Z,16.15
2017-05-04T19:03:19.225Z,16.97
2017-05-04T19:05:46.703Z,18.55
2017-05-04T19:08:14.134Z,17.37
2017-05-04T19:10:41.573Z,17.90
2017-05-04T19:13:09.042Z,17.18
2017-05-04T19:15:36.474Z,21.35
2017-05-04T19:18:03.916Z,18.23
2017-05-04T19:20:31.382Z,19.75
2017-05-04T19:22:58.817Z,17.53
2017-05-04T19:25:26.253Z,21.83
2017-05-04T19:27:53.702Z,21.37
2017-05-04T19:30:21.140Z,19.38
2017-05-04T19:32:48.583Z,19.03
2017-05-04T19:35:16.042Z,18.93
2017-05-04T19:37:43.474Z,20.07
2017-05-04T19:40:10.919Z,24.65
2017-05-04T19:42:38.376Z,23.78
2017-05-04T19:45:05.813Z,21.40
2017-05-04T19:47:33.251Z,20.95
2017-05-04T19:50:00.713Z,20.30
2017-05-04T19:52:28.146Z,24.27
2017-05-04T19:54:55.585Z,21.85
2017-05-04T19:57:23.053Z,22.75
2017-05-04T19:59:50.490Z,23.00
2017-05-04T20:02:17.958Z,22.05
2017-05-04T20:04:45.421Z,25.65
2017-05-04T20:07:12.864Z,23.08
2017-05-04T20:09:40.305Z,23.12
2017-05-04T20:12:07.760Z,22.25
2017-05-04T20:14:35.189Z,25.25
2017-05-04T20:17:02.622Z,25.23
2017-05-04T20:19:30.077Z,23.73
2017-05-04T20:21:57.517Z,24.33
2017-05-04T20:24:24.969Z,26.97
2017-05-04T20:26:52.429Z,28.45
2017-05-04T20:29:19.869Z,23.42
2017-05-04T20:31:47.308Z,29.65
2017-05-04T20:34:14.761Z,29.98
2017-05-04T20:36:42.208Z,25.03
2017-05-04T20:39:09.648Z,25.73
2017-05-04T20:41:37.106Z,24.25
2017-05-04T20:44:06.008Z,24.35
2017-05-04T20:46:33.475Z,24.10
2017-05-04T20:49:00.934Z,25.23
2017-05-04T20:51:28.378Z,24.57
2017-05-04T20:53:55.802Z,27.95
2017-05-04T20:56:23.288Z,22.62
2017-05-04T20:58:50.726Z,21.87
2017-05-04T21:01:19.167Z,23.67
2017-05-04T21:03:46.621Z,23.30
2017-05-04T21:06:14.066Z,21.73
2017-05-04T21:08:41.505Z,23.78
2017-05-04T21:11:08.958Z,22.13
2017-05-04T21:13:38.269Z,24.78
2017-05-04T21:16:05.711Z,21.90
2017-05-04T21:18:33.168Z,20.80
2017-05-04T21:21:00.612Z,20.87
2017-05-04T21:23:28.058Z,18.72
2017-05-04T21:25:55.494Z,18.52
2017-05-04T21:28:22.949Z,20.02
2017-05-04T21:30:50.378Z,20.03
2017-05-04T21:33:17.826Z,18.78
2017-05-04T21:35:45.305Z,19.77
2017-05-04T21:38:12.761Z,17.38
2017-05-04T21:40:40.218Z,17.37
2017-05-04T21:43:07.678Z,19.32
2017-05-04T21:45:35.136Z,17.07
2017-05-04T21:48:02.612Z,17.03
2017-05-04T21:50:30.061Z,16.13
2017-05-04T21:52:57.501Z,16.00
2017-05-04T21:55:24.938Z,19.63
2017-05-04T21:57:52.397Z,18.43
2017-05-04T22:00:19.837Z,15.27
2017-05-04T22:02:47.282Z,17.60
2017-05-04T22:05:14.731Z,15.08
2017-05-04T22:07:42.170Z,15.97
2017-05-04T22:10:09.599Z,18.27
2017-05-04T22:12:37.057Z,16.47
2017-05-04T22:15:04.708Z,17.08
2017-05-04T22:17:32.136Z,17.25
2017-05-04T22:19:59.589Z,16.73
2017-05-04T22:22:27.026Z,15.42
2017-05-04T22:24:54.462Z,16.65
2017-05-04T22:27:21.918Z,17.43
2017-05-04T22:29:49.346Z,16.05
2017-05-04T22:32:16.778Z,15.92
2017-05-04T22:34:44.229Z,16.17
2017-05-04T22:37:11.685Z,17.45
2017-05-04T22:39:39.124Z,16.50
2017-05-04T22:42:06.579Z,15.02
2017-05-04T22:44:34.014Z,16.97
2017-05-04T22:47:01.441Z,16.55
2017-05-04T22:49:28.901Z,15.97
2017-05-04T22:51:56.335Z,15.67
2017-05-04T22:54:23.762Z,16.15
2017-05-04T22:56:51.249Z,15.37
2017-05-04T22:59:18.689Z,16.77
2017-05-04T23:01:46.177Z,14.58
2017-05-04T23:04:13.633Z,16.70
2017-05-04T23:06:41.074Z,15.42
2017-05-04T23:09:08.506Z,16.02
2017-05-04T23:11:35.973Z,14.95
2017-05-04T23:14:03.420Z,14.13
2017-05-04T23:16:30.865Z,17.35
2017-05-04T23:18:58.316Z,16.15
2017-05-04T23:21:25.752Z,14.30
2017-05-04T23:23:53.183Z,14.48
2017-05-04T23:26:20.645Z,15.15
2017-05-04T23:28:58.431Z,15.35
2017-05-04T23:31:25.902Z,17.33
2017-05-04T23:33:53.333Z,15.98
2017-05-04T23:36:20.769Z,16.82
2017-05-04T23:38:48.239Z,15.70
2017-05-04T23:41:15.669Z,19.15
2017-05-04T23:43:43.154Z,16.10
2017-05-04T23:46:10.606Z,16.18
2017-05-04T23:48:38.041Z,16.90
2017-05-04T23:51:05.480Z,19.87
2017-05-04T23:53:32.944Z,15.60
2017-05-04T23:56:00.392Z,17.13
2017-05-04T23:58:27.826Z,17.12
